Time;durP1;ratioP1;P1;durP2;ratioP2;P2;SDS_P1;SDS_P2;PMS_P1;PMS_P2;Temp;Humidity;BMP_temperature;BMP_pressure;BME280_temperature;BME280_humidity;BME280_pressure;Samples;Min_cycle;Max_cycle;Signal;HPM_P1;HPM_P2
2022/12/05 00:01:16;;;;;;;41.90;19.50;;;1.80;99.90;;;;;;5055645;28;20374;-84
2022/12/05 00:03:42;;;;;;;40.60;21.33;;;1.80;99.90;;;;;;5053348;28;20231;-84
2022/12/05 00:06:08;;;;;;;52.93;21.37;;;1.80;99.90;;;;;;5055588;28;20180;-83
2022/12/05 00:08:34;;;;;;;46.73;20.63;;;1.80;99.90;;;;;;5054194;28;20185;-82
2022/12/05 00:10:59;;;;;;;48.83;20.50;;;1.80;99.90;;;;;;5075174;28;20200;-85
2022/12/05 00:13:25;;;;;;;45.70;20.17;;;1.80;99.90;;;;;;5075795;28;20206;-83
2022/12/05 00:15:51;;;;;;;47.67;21.23;;;1.90;99.90;;;;;;5071573;28;20181;-86
2022/12/05 00:18:16;;;;;;;45.60;21.23;;;1.80;99.90;;;;;;5058822;28;20231;-85
2022/12/05 00:20:48;;;;;;;45.43;20.73;;;1.90;99.90;;;;;;5059229;28;20192;-85
2022/12/05 00:23:14;;;;;;;47.57;21.00;;;1.90;99.90;;;;;;5057205;28;20213;-84
2022/12/05 00:25:40;;;;;;;44.33;19.63;;;1.80;99.90;;;;;;5059019;28;20193;-84
2022/12/05 00:28:06;;;;;;;44.00;21.10;;;1.80;99.90;;;;;;5055609;28;20191;-84
2022/12/05 00:30:32;;;;;;;46.47;19.10;;;1.90;99.90;;;;;;5039324;28;20174;-84
2022/12/05 00:32:58;;;;;;;50.07;20.23;;;1.90;99.90;;;;;;5043476;28;20174;-84
2022/12/05 00:35:24;;;;;;;47.40;20.30;;;1.90;99.90;;;;;;5058880;28;20185;-84
2022/12/05 00:37:49;;;;;;;45.27;20.33;;;1.90;99.90;;;;;;5057601;28;20177;-85
2022/12/05 00:40:16;;;;;;;48.37;20.47;;;1.90;99.90;;;;;;5058752;28;20216;-85
2022/12/05 00:42:42;;;;;;;41.57;18.90;;;1.90;99.90;;;;;;5049471;28;20634;-85
2022/12/05 00:45:08;;;;;;;45.33;20.27;;;1.80;99.90;;;;;;5056784;28;20245;-86
2022/12/05 00:47:35;;;;;;;45.10;20.20;;;1.80;99.90;;;;;;5065674;28;20230;-83
2022/12/05 00:50:01;;;;;;;41.80;19.13;;;1.80;99.90;;;;;;5057985;28;20234;-83
2022/12/05 00:52:27;;;;;;;43.83;20.03;;;1.90;99.90;;;;;;5074762;28;20274;-85
2022/12/05 00:54:53;;;;;;;43.83;19.13;;;1.90;99.90;;;;;;5058715;28;20269;-84
2022/12/05 00:57:18;;;;;;;40.27;18.83;;;1.90;99.90;;;;;;5051138;28;20182;-85
2022/12/05 00:59:44;;;;;;;39.80;18.57;;;1.90;99.90;;;;;;5038602;28;20273;-85
2022/12/05 01:02:10;;;;;;;39.80;19.43;;;1.90;99.90;;;;;;5042820;28;20659;-84
2022/12/05 01:04:36;;;;;;;41.37;20.70;;;1.90;99.90;;;;;;5057114;28;20216;-83
2022/12/05 01:07:01;;;;;;;38.73;16.90;;;1.90;99.90;;;;;;5039750;28;20182;-82
2022/12/05 01:09:27;;;;;;;39.60;18.43;;;1.90;99.90;;;;;;5056233;28;20611;-86
2022/12/05 01:11:53;;;;;;;40.13;20.63;;;1.90;99.90;;;;;;5056669;28;20189;-85
2022/12/05 01:14:23;;;;;;;37.03;18.67;;;1.90;99.90;;;;;;5042006;28;20181;-85
2022/12/05 01:16:51;;;;;;;43.87;19.90;;;1.90;99.90;;;;;;5054212;28;20387;-85
2022/12/05 01:19:22;;;;;;;40.87;19.43;;;1.90;99.90;;;;;;5054364;28;20275;-85
2022/12/05 01:21:49;;;;;;;36.63;18.63;;;1.90;99.90;;;;;;5052855;28;20186;-85
2022/12/05 01:24:17;;;;;;;38.20;17.83;;;1.90;99.90;;;;;;5053957;28;20220;-85
2022/12/05 01:26:44;;;;;;;42.47;18.87;;;1.90;99.90;;;;;;5052569;28;20319;-84
2022/12/05 01:29:12;;;;;;;37.83;17.57;;;1.90;99.90;;;;;;5054638;28;20185;-85
2022/12/05 01:31:40;;;;;;;34.57;17.40;;;1.90;99.90;;;;;;5054007;28;20182;-85
2022/12/05 01:34:10;;;;;;;30.53;16.17;;;1.90;99.90;;;;;;5053819;28;20322;-85
2022/12/05 01:36:38;;;;;;;35.80;17.13;;;1.90;99.90;;;;;;5053819;28;20513;-83
2022/12/05 01:39:05;;;;;;;36.37;17.67;;;1.90;99.90;;;;;;5054629;28;20201;-85
2022/12/05 01:41:38;;;;;;;36.50;18.07;;;1.90;99.90;;;;;;5054661;28;20182;-85
2022/12/05 01:44:05;;;;;;;35.37;17.00;;;1.90;99.90;;;;;;5049361;28;20551;-85
2022/12/05 01:46:34;;;;;;;43.77;17.30;;;1.90;99.90;;;;;;5053545;28;20645;-84
2022/12/05 01:49:09;;;;;;;35.20;16.67;;;1.90;99.90;;;;;;5050716;28;20197;-85
2022/12/05 01:51:38;;;;;;;33.97;18.37;;;1.90;99.90;;;;;;5034962;28;20174;-84
2022/12/05 01:54:05;;;;;;;36.53;16.47;;;1.90;99.90;;;;;;5054538;28;20186;-84
2022/12/05 01:56:32;;;;;;;41.73;17.50;;;1.90;99.90;;;;;;5055342;28;20177;-85
2022/12/05 01:59:00;;;;;;;30.77;16.40;;;1.90;99.90;;;;;;5054093;28;20632;-84
2022/12/05 02:01:27;;;;;;;33.73;16.37;;;1.90;99.90;;;;;;5053774;28;20572;-85
2022/12/05 02:03:56;;;;;;;35.93;17.87;;;1.90;99.90;;;;;;5052992;28;20216;-85
2022/12/05 02:06:23;;;;;;;31.03;16.47;;;1.90;99.90;;;;;;5053566;28;20181;-85
2022/12/05 02:08:51;;;;;;;31.93;15.47;;;1.90;99.90;;;;;;5053135;28;20182;-84
2022/12/05 02:11:18;;;;;;;35.00;16.13;;;1.90;99.90;;;;;;5053178;28;20214;-84
2022/12/05 02:14:06;;;;;;;31.20;16.77;;;1.90;99.90;;;;;;5054486;28;20207;-85
2022/12/05 02:16:52;;;;;;;28.57;15.03;;;1.90;99.90;;;;;;5033912;28;20182;-85
2022/12/05 02:19:49;;;;;;;34.50;15.87;;;1.90;99.90;;;;;;5034509;28;20237;-84
2022/12/05 02:22:19;;;;;;;27.37;14.90;;;1.90;99.90;;;;;;5037843;28;20239;-85
2022/12/05 02:25:14;;;;;;;29.30;15.07;;;1.90;99.90;;;;;;5052890;28;20259;-84
2022/12/05 02:27:58;;;;;;;30.30;14.67;;;1.90;99.90;;;;;;5052077;28;20528;-84
2022/12/05 02:30:25;;;;;;;32.43;14.97;;;1.90;99.90;;;;;;5041032;28;20264;-85
2022/12/05 02:33:09;;;;;;;26.20;14.63;;;1.90;99.90;;;;;;5051925;28;20521;-84
2022/12/05 02:35:41;;;;;;;28.77;14.40;;;1.90;99.90;;;;;;5051997;28;20711;-85
2022/12/05 02:38:52;;;;;;;30.17;15.37;;;1.90;99.90;;;;;;5052812;28;20268;-85
2022/12/05 02:41:24;;;;;;;23.87;14.10;;;1.90;99.90;;;;;;5050509;28;20604;-85
2022/12/05 02:43:56;;;;;;;27.80;14.00;;;1.90;99.90;;;;;;5050190;28;20220;-85
2022/12/05 02:46:25;;;;;;;27.53;14.47;;;1.90;99.90;;;;;;5052876;28;20274;-84
2022/12/05 02:48:55;;;;;;;28.80;13.03;;;1.90;99.90;;;;;;5053896;28;20185;-85
2022/12/05 02:51:26;;;;;;;24.33;13.40;;;1.90;99.90;;;;;;5053124;28;20256;-85
2022/12/05 02:53:56;;;;;;;28.63;14.50;;;1.90;99.90;;;;;;5051643;28;20197;-85
2022/12/05 02:56:23;;;;;;;29.73;14.20;;;1.90;99.90;;;;;;5049977;28;20192;-84
2022/12/05 02:58:54;;;;;;;26.13;13.37;;;1.90;99.90;;;;;;5043370;28;20628;-84
2022/12/05 03:01:26;;;;;;;25.97;13.67;;;2.00;99.90;;;;;;5053070;28;20231;-85
2022/12/05 03:03:53;;;;;;;27.80;14.00;;;2.00;99.90;;;;;;5051138;28;20214;-85
2022/12/05 03:06:27;;;;;;;28.17;13.93;;;2.00;99.90;;;;;;5051464;28;20182;-81
2022/12/05 03:08:57;;;;;;;30.73;14.20;;;2.00;99.90;;;;;;5052348;28;20185;-84
2022/12/05 03:11:24;;;;;;;26.53;13.30;;;1.90;99.90;;;;;;5052120;28;20205;-83
2022/12/05 03:13:54;;;;;;;29.50;13.90;;;1.90;99.90;;;;;;5032877;28;20278;-84
2022/12/05 03:16:52;;;;;;;32.07;14.27;;;2.00;99.90;;;;;;5048601;28;20189;-84
2022/12/05 03:19:30;;;;;;;29.73;14.60;;;2.00;99.90;;;;;;5028581;28;20222;-84
2022/12/05 03:22:03;;;;;;;31.70;15.70;;;1.90;99.90;;;;;;5038091;28;20185;-84
2022/12/05 03:24:30;;;;;;;30.00;14.17;;;1.90;99.90;;;;;;5051132;28;20216;-84
2022/12/05 03:27:07;;;;;;;29.27;14.10;;;2.00;99.90;;;;;;5052019;28;20240;-83
2022/12/05 03:30:13;;;;;;;30.40;14.70;;;2.00;99.90;;;;;;5052734;28;20178;-84
2022/12/05 03:32:54;;;;;;;27.27;13.90;;;1.90;99.90;;;;;;5046035;28;20193;-83
2022/12/05 03:35:40;;;;;;;31.07;15.30;;;1.90;99.90;;;;;;5051508;28;20213;-83
2022/12/05 03:38:25;;;;;;;31.23;14.70;;;2.00;99.90;;;;;;5052627;28;20185;-84
2022/12/05 03:41:12;;;;;;;31.40;14.33;;;2.00;99.90;;;;;;5032630;28;20668;-84
2022/12/05 03:43:56;;;;;;;32.63;14.80;;;2.00;99.90;;;;;;5051452;28;20217;-84
2022/12/05 03:46:31;;;;;;;33.10;15.60;;;2.00;99.90;;;;;;5055801;28;20189;-83
2022/12/05 03:49:03;;;;;;;34.87;14.40;;;2.00;99.90;;;;;;5051189;28;20249;-83
2022/12/05 03:51:44;;;;;;;31.87;14.73;;;2.00;99.90;;;;;;5055677;28;20185;-83
2022/12/05 03:54:17;;;;;;;34.53;15.03;;;2.00;99.90;;;;;;5037765;28;20503;-84
2022/12/05 03:56:52;;;;;;;30.93;14.63;;;2.00;99.90;;;;;;5055276;28;20174;-84
2022/12/05 03:59:44;;;;;;;33.30;15.17;;;2.00;99.90;;;;;;5037693;28;20166;-84
2022/12/05 04:02:29;;;;;;;30.87;14.77;;;2.00;99.90;;;;;;5042424;28;20196;-84
2022/12/05 04:05:12;;;;;;;31.27;14.60;;;2.00;99.90;;;;;;5055015;28;20263;-82
2022/12/05 04:07:40;;;;;;;36.60;15.77;;;2.00;99.90;;;;;;5055377;28;20272;-84
2022/12/05 04:10:12;;;;;;;35.33;15.60;;;2.00;99.90;;;;;;5038981;28;20240;-84
2022/12/05 04:12:42;;;;;;;32.40;16.33;;;2.00;99.90;;;;;;5045970;28;20190;-83
2022/12/05 04:15:14;;;;;;;31.80;15.97;;;2.00;99.90;;;;;;5055120;28;20213;-83
2022/12/05 04:17:57;;;;;;;35.53;15.90;;;2.00;99.90;;;;;;5046245;28;20240;-83
2022/12/05 04:23:21;;;;;;;42.07;16.70;;;2.00;99.90;;;;;;5057261;28;20220;-84
2022/12/05 04:26:02;;;;;;;36.23;15.60;;;2.00;99.90;;;;;;5048596;28;20185;-83
2022/12/05 04:28:45;;;;;;;36.90;15.57;;;1.90;99.90;;;;;;5058030;28;20198;-83
2022/12/05 04:31:22;;;;;;;37.33;15.53;;;1.90;99.90;;;;;;5076429;28;20467;-83
2022/12/05 04:33:59;;;;;;;30.60;14.80;;;1.90;99.90;;;;;;5058221;28;20185;-84
2022/12/05 04:36:41;;;;;;;37.77;15.67;;;1.80;99.90;;;;;;5080020;28;20279;-83
2022/12/05 04:39:09;;;;;;;33.57;15.77;;;1.90;99.90;;;;;;5058744;28;20260;-85
2022/12/05 04:41:43;;;;;;;31.90;15.57;;;1.90;99.90;;;;;;5066407;28;20177;-85
2022/12/05 04:44:15;;;;;;;36.60;15.47;;;1.80;99.90;;;;;;5075281;28;20212;-83
2022/12/05 04:46:43;;;;;;;32.13;14.47;;;1.90;99.90;;;;;;5065905;28;20654;-83
2022/12/05 04:49:13;;;;;;;38.10;15.57;;;1.80;99.90;;;;;;5075378;28;20185;-85
2022/12/05 04:51:41;;;;;;;33.90;14.93;;;1.80;99.90;;;;;;5069759;28;20214;-85
2022/12/05 04:54:21;;;;;;;28.63;14.07;;;1.80;99.90;;;;;;5087937;28;20188;-84
2022/12/05 04:56:50;;;;;;;31.27;14.53;;;1.80;99.90;;;;;;5074748;28;20173;-83
2022/12/05 04:59:16;;;;;;;33.13;14.80;;;1.80;99.90;;;;;;5075339;28;20189;-84
2022/12/05 05:01:56;;;;;;;32.57;14.90;;;1.80;99.90;;;;;;5085854;28;20514;-84
2022/12/05 05:04:35;;;;;;;34.30;14.90;;;1.80;99.90;;;;;;5089512;28;20277;-84
2022/12/05 05:07:08;;;;;;;29.00;14.63;;;1.70;99.90;;;;;;5077366;28;20215;-84
2022/12/05 05:09:34;;;;;;;31.30;14.50;;;1.70;99.90;;;;;;5074509;28;20650;-83
2022/12/05 05:12:00;;;;;;;35.07;14.43;;;1.70;99.90;;;;;;5077973;28;20491;-83
2022/12/05 05:14:25;;;;;;;29.57;13.83;;;1.70;99.90;;;;;;5076624;28;20191;-83
2022/12/05 05:16:51;;;;;;;32.37;13.37;;;1.80;99.90;;;;;;5085095;28;20180;-83
2022/12/05 05:19:17;;;;;;;30.33;13.10;;;1.70;99.90;;;;;;5096594;28;20805;-84
2022/12/05 05:21:43;;;;;;;31.97;13.53;;;1.80;99.90;;;;;;5077318;28;20306;-82
2022/12/05 05:24:10;;;;;;;26.77;13.10;;;1.80;99.90;;;;;;5077387;28;20298;-84
2022/12/05 05:26:41;;;;;;;26.97;12.90;;;1.80;99.90;;;;;;5096176;28;20608;-84
2022/12/05 05:29:08;;;;;;;30.47;13.33;;;1.80;99.90;;;;;;5059970;28;20209;-84
2022/12/05 05:31:35;;;;;;;28.00;12.67;;;1.80;99.90;;;;;;5071506;28;20615;-84
2022/12/05 05:34:01;;;;;;;27.43;13.50;;;1.80;99.90;;;;;;5087530;28;20204;-84
2022/12/05 05:36:28;;;;;;;33.43;13.53;;;1.80;99.90;;;;;;5071206;28;20199;-84
2022/12/05 05:38:59;;;;;;;29.40;13.70;;;1.80;99.90;;;;;;5076354;28;20208;-83
2022/12/05 05:41:31;;;;;;;25.90;12.43;;;1.80;99.90;;;;;;5095811;28;20168;-83
2022/12/05 05:43:58;;;;;;;32.57;13.73;;;1.80;99.90;;;;;;5069758;28;20213;-83
2022/12/05 05:46:26;;;;;;;26.23;12.60;;;1.80;99.90;;;;;;5077682;28;20200;-84
2022/12/05 05:48:52;;;;;;;29.13;12.80;;;1.80;99.90;;;;;;5086937;28;20255;-83
2022/12/05 05:51:20;;;;;;;27.07;12.00;;;1.70;99.90;;;;;;5072781;28;20284;-83
2022/12/05 05:53:47;;;;;;;25.07;12.40;;;1.70;99.90;;;;;;5074520;28;20852;-83
2022/12/05 05:56:16;;;;;;;27.63;12.17;;;1.60;99.90;;;;;;5079906;28;20195;-83
2022/12/05 05:58:42;;;;;;;23.73;11.47;;;1.60;99.90;;;;;;5090438;28;20189;-83
2022/12/05 06:01:21;;;;;;;25.40;11.43;;;1.60;99.90;;;;;;5095442;28;20176;-83
2022/12/05 06:03:49;;;;;;;22.83;10.93;;;1.60;99.90;;;;;;5064669;28;20872;-83
2022/12/05 06:06:15;;;;;;;22.57;11.03;;;1.50;99.90;;;;;;5070240;28;20169;-83
2022/12/05 06:08:42;;;;;;;20.77;11.13;;;1.50;99.90;;;;;;5092943;28;20255;-82
2022/12/05 06:11:11;;;;;;;21.50;10.80;;;1.40;99.90;;;;;;5095305;28;20200;-84
2022/12/05 06:13:37;;;;;;;22.30;10.93;;;1.40;99.90;;;;;;5074560;28;20267;-83
2022/12/05 06:16:08;;;;;;;18.67;10.27;;;1.40;99.90;;;;;;5072462;28;20234;-83
2022/12/05 06:18:34;;;;;;;19.47;10.13;;;1.40;99.90;;;;;;5092854;28;20334;-82
2022/12/05 06:21:00;;;;;;;22.07;10.93;;;1.30;99.90;;;;;;5085754;28;20196;-83
2022/12/05 06:23:26;;;;;;;21.33;10.37;;;1.30;99.90;;;;;;5075776;28;20212;-83
2022/12/05 06:25:54;;;;;;;24.63;10.80;;;1.30;99.90;;;;;;5076084;28;20203;-83
2022/12/05 06:28:22;;;;;;;17.80;9.53;;;1.30;99.90;;;;;;5072567;28;20230;-86
2022/12/05 06:30:47;;;;;;;19.13;10.70;;;1.30;99.90;;;;;;5075490;28;20184;-83
2022/12/05 06:33:14;;;;;;;22.17;10.60;;;1.20;99.90;;;;;;5090496;28;20241;-83
2022/12/05 06:35:41;;;;;;;18.63;10.10;;;1.20;99.90;;;;;;5081870;28;20181;-81
2022/12/05 06:38:08;;;;;;;19.30;9.90;;;1.20;99.90;;;;;;5088320;28;20184;-81
2022/12/05 06:40:34;;;;;;;19.80;10.83;;;1.20;99.90;;;;;;5094825;28;20177;-83
2022/12/05 06:43:00;;;;;;;21.33;10.50;;;1.10;99.90;;;;;;5080871;28;20639;-81
2022/12/05 06:45:25;;;;;;;17.87;10.37;;;1.10;99.90;;;;;;5093771;28;20220;-82
2022/12/05 06:47:52;;;;;;;17.80;10.27;;;1.10;99.90;;;;;;5086175;28;20181;-82
2022/12/05 06:50:18;;;;;;;18.20;9.60;;;1.10;99.90;;;;;;5060437;28;20196;-80
2022/12/05 06:52:44;;;;;;;24.63;11.23;;;1.00;99.90;;;;;;5077697;28;20288;-84
2022/12/05 06:55:10;;;;;;;18.83;10.30;;;1.10;99.90;;;;;;5103205;28;20267;-81
2022/12/05 06:57:36;;;;;;;17.83;10.23;;;1.00;99.90;;;;;;5087720;28;20192;-80
2022/12/05 07:02:50;;;;;;;18.00;9.57;;;1.00;99.90;;;;;;5087439;28;20210;-79
2022/12/05 07:05:16;;;;;;;57.07;25.27;;;1.00;99.90;;;;;;5091834;28;20294;-80
2022/12/05 07:07:42;;;;;;;28.80;14.20;;;1.00;99.90;;;;;;5091740;28;20325;-80
2022/12/05 07:10:08;;;;;;;20.47;10.30;;;0.90;99.90;;;;;;5073779;28;20685;-79
2022/12/05 07:12:34;;;;;;;19.23;9.63;;;0.90;99.90;;;;;;5077343;28;20176;-80
2022/12/05 07:15:00;;;;;;;21.57;11.10;;;1.00;99.90;;;;;;5093914;28;20591;-80
2022/12/05 07:17:26;;;;;;;22.47;10.73;;;1.00;99.90;;;;;;5079792;28;20218;-79
2022/12/05 07:19:52;;;;;;;22.63;12.40;;;0.90;99.90;;;;;;5093501;28;20289;-81
2022/12/05 07:22:19;;;;;;;17.50;11.23;;;1.00;99.90;;;;;;5081747;28;20262;-79
2022/12/05 07:24:45;;;;;;;16.33;9.53;;;0.90;99.90;;;;;;5092287;28;20289;-80
2022/12/05 07:27:11;;;;;;;21.40;13.50;;;0.90;99.90;;;;;;5091977;28;20180;-79
2022/12/05 07:29:37;;;;;;;18.33;10.30;;;0.90;99.90;;;;;;5092788;28;20202;-79
2022/12/05 07:32:03;;;;;;;17.83;9.50;;;0.90;99.90;;;;;;5093533;28;20247;-79
2022/12/05 07:34:28;;;;;;;17.83;9.10;;;0.90;99.90;;;;;;5092539;28;20591;-80
2022/12/05 07:36:54;;;;;;;17.80;9.13;;;0.90;99.90;;;;;;5091930;28;20216;-79
2022/12/05 07:39:20;;;;;;;17.07;9.63;;;0.90;99.90;;;;;;5093640;28;20548;-80
2022/12/05 07:41:45;;;;;;;21.10;10.60;;;0.90;99.90;;;;;;5081953;28;20189;-79
2022/12/05 07:44:12;;;;;;;20.53;11.67;;;0.90;99.90;;;;;;5072433;28;20229;-80
2022/12/05 07:46:38;;;;;;;20.70;10.80;;;0.90;99.90;;;;;;5095002;28;20176;-80
2022/12/05 07:49:04;;;;;;;17.57;9.23;;;0.90;99.90;;;;;;5088102;28;20274;-79
2022/12/05 07:51:30;;;;;;;16.70;9.97;;;0.90;99.90;;;;;;5079907;28;20234;-79
2022/12/05 07:53:58;;;;;;;15.13;9.10;;;0.90;99.90;;;;;;5072469;28;20192;-81
2022/12/05 07:56:24;;;;;;;15.53;8.80;;;0.90;99.90;;;;;;5089366;28;20329;-80
2022/12/05 07:58:51;;;;;;;17.13;8.87;;;0.90;99.90;;;;;;5073209;28;20267;-80
2022/12/05 08:01:21;;;;;;;13.10;8.17;;;1.00;99.90;;;;;;5071639;28;20188;-80
2022/12/05 08:03:48;;;;;;;12.90;7.83;;;1.00;99.90;;;;;;5075174;28;20694;-80
2022/12/05 08:06:17;;;;;;;11.83;7.73;;;1.00;99.90;;;;;;5074096;28;20196;-80
2022/12/05 08:08:43;;;;;;;13.40;8.60;;;1.00;99.90;;;;;;5087958;28;20457;-80
2022/12/05 08:11:15;;;;;;;15.40;8.70;;;1.00;99.90;;;;;;5092956;28;20173;-80
2022/12/05 08:13:41;;;;;;;13.70;7.43;;;1.00;99.90;;;;;;5089414;28;20161;-80
2022/12/05 08:16:10;;;;;;;12.80;7.23;;;1.00;99.90;;;;;;5083332;28;20184;-80
2022/12/05 08:18:36;;;;;;;13.93;8.00;;;1.10;99.90;;;;;;5090330;28;20277;-80
2022/12/05 08:21:14;;;;;;;12.30;7.53;;;1.00;99.90;;;;;;5090231;28;20284;-80
2022/12/05 08:23:40;;;;;;;14.23;8.40;;;1.00;99.90;;;;;;5096851;28;20505;-82
2022/12/05 08:26:09;;;;;;;10.77;6.90;;;1.10;99.90;;;;;;5088461;28;20184;-82
2022/12/05 08:28:36;;;;;;;12.13;7.03;;;1.10;99.90;;;;;;5080914;28;20192;-82
2022/12/05 08:31:10;;;;;;;11.63;7.73;;;1.10;99.90;;;;;;5062533;28;20180;-83
2022/12/05 08:33:36;;;;;;;11.37;7.13;;;1.10;99.90;;;;;;5080088;28;20248;-80
2022/12/05 08:36:04;;;;;;;10.60;6.90;;;1.10;99.90;;;;;;5086316;28;20193;-81
2022/12/05 08:38:30;;;;;;;10.20;6.57;;;1.10;99.90;;;;;;5086207;28;20204;-81
2022/12/05 08:40:56;;;;;;;10.73;6.80;;;1.10;99.90;;;;;;5094930;28;20210;-81
2022/12/05 08:43:22;;;;;;;11.63;7.27;;;1.10;99.90;;;;;;5076099;28;20184;-82
2022/12/05 08:45:51;;;;;;;11.70;6.90;;;1.10;99.90;;;;;;5080175;28;20181;-81
2022/12/05 08:48:17;;;;;;;10.43;6.93;;;1.10;99.90;;;;;;5069900;28;20185;-82
2022/12/05 08:50:43;;;;;;;10.20;6.13;;;1.10;99.90;;;;;;5093525;28;20228;-81
2022/12/05 08:53:09;;;;;;;9.27;6.13;;;1.10;99.90;;;;;;5076736;28;20275;-86
2022/12/05 08:55:35;;;;;;;9.53;6.60;;;1.10;99.90;;;;;;5069109;28;20525;-82
2022/12/05 08:58:01;;;;;;;8.23;5.60;;;1.10;99.90;;;;;;5069527;28;20180;-83
2022/12/05 09:00:27;;;;;;;9.33;5.57;;;1.10;99.90;;;;;;5059728;28;20279;-82
2022/12/05 09:02:52;;;;;;;7.40;5.30;;;1.20;99.90;;;;;;5086989;28;20499;-84
2022/12/05 09:05:18;;;;;;;7.30;5.43;;;1.20;99.90;;;;;;5070796;28;20285;-85
2022/12/05 09:07:44;;;;;;;7.70;5.57;;;1.20;99.90;;;;;;5093875;28;20187;-83
2022/12/05 09:10:10;;;;;;;8.33;4.90;;;1.20;99.90;;;;;;5082811;28;20177;-84
2022/12/05 09:12:37;;;;;;;7.83;5.17;;;1.20;99.90;;;;;;5096313;28;20164;-85
2022/12/05 09:15:05;;;;;;;14.43;8.83;;;1.20;99.90;;;;;;5096100;28;20607;-84
2022/12/05 09:17:31;;;;;;;32.40;19.70;;;1.20;99.90;;;;;;5096161;28;20161;-83
2022/12/05 09:19:57;;;;;;;23.23;13.83;;;1.20;99.90;;;;;;5076197;28;20535;-83
2022/12/05 09:22:23;;;;;;;8.87;7.13;;;1.30;99.90;;;;;;5077701;28;20268;-84
2022/12/05 09:24:48;;;;;;;8.97;5.73;;;1.20;99.90;;;;;;5077861;28;20216;-83
2022/12/05 09:27:14;;;;;;;8.27;5.00;;;1.20;99.90;;;;;;5077330;28;20184;-84
2022/12/05 09:29:40;;;;;;;7.10;5.00;;;1.30;99.90;;;;;;5092334;28;20230;-83
2022/12/05 09:32:06;;;;;;;8.53;5.53;;;1.30;99.90;;;;;;5075704;28;20605;-86
2022/12/05 09:34:34;;;;;;;15.03;8.13;;;1.30;99.90;;;;;;5072245;28;20514;-83
2022/12/05 09:37:09;;;;;;;17.97;10.80;;;1.30;99.90;;;;;;5097500;28;20262;-84
2022/12/05 09:39:35;;;;;;;10.40;6.80;;;1.30;99.90;;;;;;5080281;28;20192;-85
2022/12/05 09:42:17;;;;;;;9.50;5.27;;;1.30;99.90;;;;;;5077441;28;20172;-85
2022/12/05 09:44:57;;;;;;;5.23;3.97;;;1.30;99.90;;;;;;5077452;28;20222;-85
2022/12/05 09:47:45;;;;;;;7.67;5.07;;;1.30;99.90;;;;;;5077933;28;20161;-84
2022/12/05 09:50:14;;;;;;;6.73;4.90;;;1.30;99.90;;;;;;5076816;28;20188;-85
2022/12/05 09:52:49;;;;;;;6.40;4.60;;;1.30;99.90;;;;;;5077842;28;20172;-85
2022/12/05 09:55:19;;;;;;;8.23;5.57;;;1.30;99.90;;;;;;5106197;28;20183;-85
2022/12/05 09:57:57;;;;;;;7.97;5.07;;;1.30;99.90;;;;;;5077389;28;20268;-84
2022/12/05 10:00:25;;;;;;;7.57;5.50;;;1.30;99.90;;;;;;5091589;28;20200;-85
2022/12/05 10:03:08;;;;;;;7.53;5.33;;;1.30;99.90;;;;;;5076379;28;20180;-84
2022/12/05 10:06:10;;;;;;;10.27;7.03;;;1.30;99.90;;;;;;5075934;28;20338;-84
2022/12/05 10:08:45;;;;;;;6.77;4.57;;;1.30;99.90;;;;;;5000025;28;20267;-85
2022/12/05 10:11:45;;;;;;;7.37;4.57;;;1.30;99.90;;;;;;5060497;28;20252;-84
2022/12/05 10:14:36;;;;;;;8.20;4.37;;;1.30;99.90;;;;;;5061690;28;20611;-86
2022/12/05 10:20:22;;;;;;;5.37;4.10;;;1.40;99.90;;;;;;5068501;28;20243;-88
2022/12/05 10:23:10;;;;;;;6.47;4.57;;;1.40;99.90;;;;;;5053946;28;20268;-86
2022/12/05 10:25:39;;;;;;;7.00;4.37;;;1.40;99.90;;;;;;5051963;28;20682;-90
2022/12/05 10:28:17;;;;;;;5.37;4.10;;;1.40;99.90;;;;;;5055429;28;20177;-91
2022/12/05 10:30:46;;;;;;;9.03;4.90;;;1.40;99.90;;;;;;5048483;28;20198;-90
2022/12/05 10:33:21;;;;;;;7.63;5.57;;;1.40;99.90;;;;;;5074740;28;20620;-86
2022/12/05 10:35:52;;;;;;;6.07;4.23;;;1.40;99.90;;;;;;5056833;28;20184;-85
2022/12/05 10:38:28;;;;;;;6.40;4.10;;;1.40;99.90;;;;;;5077145;28;20192;-85
2022/12/05 10:40:58;;;;;;;5.40;4.40;;;1.40;99.90;;;;;;5054853;28;20241;-94
2022/12/05 10:43:29;;;;;;;7.27;5.43;;;1.40;99.90;;;;;;5074908;28;20557;-92
2022/12/05 10:45:57;;;;;;;8.63;4.90;;;1.40;99.90;;;;;;5073382;28;20219;-94
2022/12/05 10:48:23;;;;;;;6.27;4.70;;;1.40;99.90;;;;;;5057171;28;20184;-92
2022/12/05 10:50:54;;;;;;;6.23;4.80;;;1.40;99.90;;;;;;5073708;28;20186;-91
2022/12/05 10:53:31;;;;;;;7.07;5.27;;;1.40;99.90;;;;;;5040632;28;20519;-85
2022/12/05 10:55:57;;;;;;;7.00;5.07;;;1.40;99.90;;;;;;5053795;28;20201;-84
2022/12/05 10:58:27;;;;;;;5.30;4.70;;;1.40;99.90;;;;;;5065392;28;20204;-91
2022/12/05 11:00:56;;;;;;;7.47;5.00;;;1.40;99.90;;;;;;5056076;28;20199;-96
2022/12/05 11:03:26;;;;;;;5.87;4.27;;;1.40;99.90;;;;;;5067135;28;20184;-95
2022/12/05 11:05:56;;;;;;;5.90;4.37;;;1.40;99.90;;;;;;5083688;28;20217;-96
2022/12/05 11:08:33;;;;;;;5.83;4.30;;;1.40;99.90;;;;;;5057057;28;20177;-91
2022/12/05 11:11:20;;;;;;;6.27;4.67;;;1.40;99.90;;;;;;5074346;28;20177;-96
2022/12/05 11:13:57;;;;;;;6.40;3.93;;;1.40;99.90;;;;;;5057046;28;20607;-93
2022/12/05 11:16:28;;;;;;;7.60;4.80;;;1.50;99.90;;;;;;5069712;28;20607;-85
2022/12/05 11:18:54;;;;;;;5.40;4.17;;;1.50;99.90;;;;;;5079312;28;20224;-90
2022/12/05 11:21:20;;;;;;;5.80;4.00;;;1.50;99.90;;;;;;5094296;28;20202;-96
2022/12/05 11:23:47;;;;;;;6.07;4.13;;;1.50;99.90;;;;;;5076915;28;20204;-95
2022/12/05 11:26:38;;;;;;;9.13;5.33;;;1.50;99.90;;;;;;5076438;28;20184;-94
2022/12/05 11:29:03;;;;;;;11.90;5.83;;;1.50;99.90;;;;;;5108611;28;20172;-95
2022/12/05 11:31:30;;;;;;;8.93;5.73;;;1.60;99.90;;;;;;5077355;28;20238;-94
2022/12/05 11:34:10;;;;;;;7.27;5.17;;;1.60;99.90;;;;;;5076071;28;20180;-92
2022/12/05 11:36:57;;;;;;;7.13;4.63;;;1.60;99.90;;;;;;5075975;28;20176;-95
2022/12/05 11:39:24;;;;;;;7.10;5.27;;;1.60;99.90;;;;;;5095241;28;20210;-95
2022/12/05 11:42:07;;;;;;;8.23;5.77;;;1.60;99.90;;;;;;5094677;28;20196;-93
2022/12/05 11:44:45;;;;;;;6.77;5.10;;;1.60;99.90;;;;;;5094606;28;20208;-95
2022/12/05 11:50:40;;;;;;;7.70;5.17;;;1.70;99.90;;;;;;5094913;28;20271;-95
2022/12/05 11:53:46;;;;;;;13.10;9.13;;;1.60;99.90;;;;;;5047958;28;20188;-94
2022/12/05 11:56:24;;;;;;;9.50;6.67;;;1.70;99.90;;;;;;4977299;28;20623;-91
2022/12/05 11:59:20;;;;;;;8.90;6.20;;;1.70;99.90;;;;;;4992809;28;20179;-90
2022/12/05 12:01:52;;;;;;;10.30;6.87;;;1.70;99.90;;;;;;5067077;28;20188;-89
2022/12/05 12:04:48;;;;;;;8.10;5.43;;;1.70;99.90;;;;;;5083534;28;20204;-85
2022/12/05 12:07:24;;;;;;;6.97;4.90;;;1.70;99.90;;;;;;5051554;28;20246;-85
2022/12/05 12:10:04;;;;;;;6.80;4.60;;;1.70;99.90;;;;;;5079700;28;20173;-85
2022/12/05 12:12:42;;;;;;;6.80;4.90;;;1.70;99.90;;;;;;5098181;28;20191;-85
2022/12/05 12:15:36;;;;;;;5.87;4.27;;;1.70;99.90;;;;;;5090613;28;20167;-85
2022/12/05 12:18:45;;;;;;;7.47;4.30;;;1.70;99.90;;;;;;5089785;28;20194;-86
2022/12/05 12:21:26;;;;;;;6.97;4.77;;;1.60;99.90;;;;;;5019309;28;20191;-85
2022/12/05 12:24:05;;;;;;;6.50;4.13;;;1.60;99.90;;;;;;5070088;28;20227;-86
2022/12/05 12:27:08;;;;;;;8.03;5.73;;;1.60;99.90;;;;;;5078604;28;20250;-83
2022/12/05 12:29:55;;;;;;;8.00;5.53;;;1.50;99.90;;;;;;5077717;28;20183;-84
2022/12/05 12:32:24;;;;;;;7.30;5.10;;;1.60;99.90;;;;;;5083828;28;20230;-88
2022/12/05 12:35:12;;;;;;;9.50;5.27;;;1.60;99.90;;;;;;5078313;28;20183;-85
2022/12/05 12:37:59;;;;;;;8.33;5.67;;;1.60;99.90;;;;;;5090621;28;20189;-84
2022/12/05 12:40:40;;;;;;;6.53;5.27;;;1.60;99.90;;;;;;5071971;28;20184;-83
2022/12/05 12:43:08;;;;;;;9.30;5.67;;;1.60;99.90;;;;;;5079102;28;20651;-83
2022/12/05 12:46:15;;;;;;;7.40;5.10;;;1.60;99.90;;;;;;5096766;28;20205;-84
2022/12/05 12:49:14;;;;;;;7.40;4.70;;;1.60;99.90;;;;;;5078052;28;20343;-83
2022/12/05 12:51:51;;;;;;;8.90;5.83;;;1.60;99.90;;;;;;5078833;28;20173;-83
2022/12/05 12:54:40;;;;;;;9.43;5.50;;;1.50;99.90;;;;;;5078212;28;20221;-85
2022/12/05 12:57:21;;;;;;;8.33;6.10;;;1.50;99.90;;;;;;5059731;28;20219;-88
2022/12/05 13:00:02;;;;;;;10.00;6.00;;;1.50;99.90;;;;;;5078245;28;20195;-89
2022/12/05 13:02:38;;;;;;;8.43;5.40;;;1.50;99.90;;;;;;5092599;28;20255;-84
2022/12/05 13:05:42;;;;;;;11.07;6.17;;;1.50;99.90;;;;;;5073497;28;20213;-83
2022/12/05 13:08:27;;;;;;;10.00;6.60;;;1.50;99.90;;;;;;5090488;28;20195;-83
2022/12/05 13:10:57;;;;;;;11.53;8.57;;;1.60;99.90;;;;;;5069403;28;20173;-83
2022/12/05 13:13:32;;;;;;;11.87;7.03;;;1.60;99.90;;;;;;5081335;28;20172;-83
2022/12/05 13:16:00;;;;;;;9.07;5.80;;;1.60;99.90;;;;;;5077113;28;20172;-83
2022/12/05 13:18:27;;;;;;;10.20;5.47;;;1.60;99.90;;;;;;5094930;28;20683;-84
2022/12/05 13:20:55;;;;;;;10.83;6.43;;;1.60;99.90;;;;;;5079773;28;20185;-84